Time;durP1;ratioP1;P1;durP2;ratioP2;P2;SDS_P1;SDS_P2;PMS_P1;PMS_P2;Temp;Humidity;BMP_temperature;BMP_pressure;BME280_temperature;BME280_humidity;BME280_pressure;Samples;Min_cycle;Max_cycle;Signal;HPM_P1;HPM_P2
2021/10/13 00:01:21;;;;;;;5.00;1.75;;;20.10;81.40;;;;;;5068669;28;20107;-77
2021/10/13 00:03:47;;;;;;;8.32;1.85;;;20.10;81.50;;;;;;5072331;28;20040;-78
2021/10/13 00:06:14;;;;;;;4.63;2.05;;;20.10;81.40;;;;;;5068447;28;20456;-80
2021/10/13 00:08:40;;;;;;;7.72;2.00;;;20.10;81.40;;;;;;5070013;28;20129;-77
2021/10/13 00:11:07;;;;;;;3.75;2.00;;;20.10;81.30;;;;;;5068355;28;20057;-75
2021/10/13 00:13:34;;;;;;;8.52;2.75;;;20.10;81.50;;;;;;5066567;28;20021;-76
2021/10/13 00:16:00;;;;;;;5.50;2.33;;;20.00;81.40;;;;;;5070802;28;20121;-77
2021/10/13 00:18:27;;;;;;;7.30;2.53;;;20.00;81.60;;;;;;5066863;28;20009;-76
2021/10/13 00:20:53;;;;;;;5.85;2.00;;;20.00;81.70;;;;;;5070321;28;20032;-76
2021/10/13 00:23:20;;;;;;;5.93;2.22;;;20.00;81.80;;;;;;5067512;28;20114;-76
2021/10/13 00:25:46;;;;;;;9.20;2.35;;;19.90;81.80;;;;;;5063844;28;20028;-78
2021/10/13 00:28:13;;;;;;;6.40;1.73;;;19.90;81.80;;;;;;5068318;28;20499;-77
2021/10/13 00:30:39;;;;;;;7.22;2.60;;;19.90;82.00;;;;;;5068327;28;20067;-77
2021/10/13 00:33:06;;;;;;;7.13;2.03;;;19.90;82.00;;;;;;5067998;28;20657;-77
2021/10/13 00:35:33;;;;;;;5.22;2.00;;;19.90;82.10;;;;;;5069190;28;20030;-80
2021/10/13 00:37:59;;;;;;;5.88;2.60;;;19.90;82.00;;;;;;5068723;28;20054;-78
2021/10/13 00:40:26;;;;;;;5.65;2.40;;;19.90;82.20;;;;;;5068015;28;20032;-77
2021/10/13 00:42:53;;;;;;;6.15;2.00;;;19.90;82.80;;;;;;5068253;28;20135;-77
2021/10/13 00:45:19;;;;;;;5.50;2.13;;;19.90;82.30;;;;;;5061144;28;20395;-78
2021/10/13 00:47:46;;;;;;;5.60;1.60;;;19.80;82.30;;;;;;5070658;28;20082;-77
2021/10/13 00:50:13;;;;;;;6.45;1.95;;;19.80;82.40;;;;;;5069259;28;20379;-76
2021/10/13 00:52:41;;;;;;;6.85;2.88;;;19.70;82.40;;;;;;5064732;28;20021;-78
2021/10/13 00:55:17;;;;;;;8.20;2.40;;;19.70;82.40;;;;;;5068216;28;20071;-77
2021/10/13 00:57:44;;;;;;;6.70;2.42;;;19.70;82.50;;;;;;5067263;28;20031;-76
2021/10/13 01:00:12;;;;;;;4.57;2.03;;;19.70;82.50;;;;;;5068068;28;20027;-76
2021/10/13 01:02:48;;;;;;;6.28;2.35;;;19.70;82.40;;;;;;5067314;28;20475;-79
2021/10/13 01:06:00;;;;;;;6.88;2.13;;;19.70;82.50;;;;;;5068239;28;20022;-78
2021/10/13 01:08:39;;;;;;;6.40;2.10;;;19.70;82.50;;;;;;5018882;28;20394;-78
2021/10/13 01:11:33;;;;;;;8.10;1.73;;;19.70;82.50;;;;;;5066137;28;20039;-81
2021/10/13 01:14:11;;;;;;;4.70;1.65;;;19.70;82.40;;;;;;5067967;28;20042;-79
2021/10/13 01:16:44;;;;;;;9.18;2.00;;;19.70;82.40;;;;;;5066092;28;20025;-80
2021/10/13 01:19:38;;;;;;;3.78;1.55;;;19.70;82.40;;;;;;5061658;28;20117;-79
2021/10/13 01:22:35;;;;;;;5.15;2.58;;;19.70;82.20;;;;;;5066878;28;20024;-79
2021/10/13 01:25:28;;;;;;;6.95;2.40;;;19.70;82.30;;;;;;5064926;28;20113;-77
2021/10/13 01:28:02;;;;;;;6.78;2.17;;;19.60;82.20;;;;;;5064190;28;20020;-79
2021/10/13 01:30:36;;;;;;;5.78;1.63;;;19.60;82.20;;;;;;5066711;28;20035;-78
2021/10/13 01:33:10;;;;;;;4.00;1.98;;;19.60;82.20;;;;;;5064607;28;20045;-77
2021/10/13 01:35:44;;;;;;;6.20;1.95;;;19.60;82.20;;;;;;5059369;28;20510;-78
2021/10/13 01:38:16;;;;;;;5.03;1.77;;;19.60;82.30;;;;;;5063610;28;20029;-77
2021/10/13 01:40:43;;;;;;;5.13;1.95;;;19.60;82.40;;;;;;5065121;28;20163;-79
2021/10/13 01:43:12;;;;;;;6.72;1.98;;;19.60;82.50;;;;;;5066307;28;20759;-80
2021/10/13 01:45:51;;;;;;;6.57;2.15;;;19.60;82.50;;;;;;5066619;28;20344;-77
2021/10/13 01:48:19;;;;;;;9.60;2.67;;;19.60;82.50;;;;;;5068834;28;20031;-78
2021/10/13 01:50:57;;;;;;;4.38;2.28;;;19.60;82.60;;;;;;5066309;28;20399;-77
2021/10/13 01:53:27;;;;;;;9.13;1.92;;;19.50;82.40;;;;;;5067312;28;20427;-77
2021/10/13 01:55:57;;;;;;;3.88;1.50;;;19.60;82.30;;;;;;5064750;28;20027;-79
2021/10/13 01:58:47;;;;;;;6.07;1.45;;;19.60;82.30;;;;;;5067475;28;20028;-78
2021/10/13 02:01:15;;;;;;;1.80;1.27;;;19.60;82.50;;;;;;5065042;28;20083;-78
2021/10/13 02:03:46;;;;;;;5.22;1.80;;;19.60;82.50;;;;;;5069433;28;20017;-78
2021/10/13 02:06:15;;;;;;;5.15;1.40;;;19.60;83.00;;;;;;5068186;28;20081;-79
2021/10/13 02:08:43;;;;;;;9.50;1.80;;;19.60;82.30;;;;;;5059215;28;20021;-78
2021/10/13 02:11:10;;;;;;;9.02;2.05;;;19.60;82.20;;;;;;5068783;28;20059;-78
2021/10/13 02:13:38;;;;;;;6.80;1.40;;;19.60;82.00;;;;;;5067911;28;20434;-78
2021/10/13 02:16:06;;;;;;;7.38;1.58;;;19.50;81.90;;;;;;5065537;28;20021;-77
2021/10/13 02:18:34;;;;;;;6.45;1.67;;;19.50;81.90;;;;;;5063500;28;20020;-77
2021/10/13 02:21:03;;;;;;;3.20;2.25;;;19.50;81.80;;;;;;5063414;28;20033;-78
2021/10/13 02:23:33;;;;;;;5.05;1.77;;;19.40;81.60;;;;;;5067295;28;20100;-78
2021/10/13 02:26:17;;;;;;;7.40;2.13;;;19.40;81.60;;;;;;5067014;28;20015;-78
2021/10/13 02:28:56;;;;;;;9.35;1.95;;;19.40;81.80;;;;;;5060605;28;20055;-80
2021/10/13 02:31:22;;;;;;;5.70;1.65;;;19.30;81.70;;;;;;5061672;28;20076;-80
2021/10/13 02:33:49;;;;;;;7.47;1.85;;;19.30;82.00;;;;;;5067379;28;20009;-80
2021/10/13 02:36:15;;;;;;;7.50;2.50;;;19.30;82.20;;;;;;5066096;28;20539;-77
2021/10/13 02:38:42;;;;;;;5.30;3.15;;;19.20;82.50;;;;;;5061619;28;20023;-79
2021/10/13 02:41:08;;;;;;;8.85;3.72;;;19.20;82.30;;;;;;5063400;28;20029;-77
2021/10/13 02:43:36;;;;;;;7.18;3.80;;;19.20;82.60;;;;;;5063944;28;20032;-78
2021/10/13 02:46:30;;;;;;;11.50;4.47;;;19.20;82.70;;;;;;5065188;28;20108;-80
2021/10/13 02:49:27;;;;;;;18.50;5.50;;;19.20;82.90;;;;;;5066619;28;20068;-77
2021/10/13 02:52:23;;;;;;;15.80;4.38;;;19.20;83.00;;;;;;5075950;28;20489;-81
2021/10/13 02:55:12;;;;;;;13.20;5.03;;;19.20;83.10;;;;;;5061401;28;20480;-78
2021/10/13 02:57:46;;;;;;;16.10;5.78;;;19.10;83.20;;;;;;5060976;28;20020;-79
2021/10/13 03:00:14;;;;;;;18.63;5.88;;;19.10;83.20;;;;;;5065241;28;20013;-81
2021/10/13 03:03:01;;;;;;;46.53;33.13;;;19.10;83.10;;;;;;5063862;28;20079;-81
2021/10/13 03:05:29;;;;;;;44.38;32.45;;;19.10;83.30;;;;;;5067419;28;20059;-79
2021/10/13 03:08:00;;;;;;;25.38;10.93;;;19.10;83.40;;;;;;5068770;28;20071;-81
2021/10/13 03:10:28;;;;;;;16.48;5.82;;;19.10;83.30;;;;;;5062839;28;20059;-80
2021/10/13 03:12:57;;;;;;;13.77;5.18;;;19.00;83.30;;;;;;5059526;28;20024;-80
2021/10/13 03:15:29;;;;;;;13.88;4.50;;;19.00;83.30;;;;;;5096071;28;20013;-81
2021/10/13 03:17:58;;;;;;;15.65;5.97;;;19.00;83.20;;;;;;5061577;28;20074;-82
2021/10/13 03:20:27;;;;;;;13.95;4.78;;;19.00;83.20;;;;;;5062657;28;20013;-80
2021/10/13 03:22:57;;;;;;;14.32;6.88;;;19.00;83.40;;;;;;5064886;28;20778;-80
2021/10/13 03:25:31;;;;;;;7.93;4.20;;;19.00;83.30;;;;;;5063640;28;20040;-78
2021/10/13 03:27:59;;;;;;;16.58;4.20;;;19.00;83.00;;;;;;5067925;28;20024;-77
2021/10/13 03:30:26;;;;;;;9.75;3.53;;;18.90;82.90;;;;;;5070805;28;20094;-79
2021/10/13 03:32:53;;;;;;;9.73;3.58;;;18.80;82.90;;;;;;5070665;28;20099;-78
2021/10/13 03:35:31;;;;;;;8.35;3.58;;;18.80;83.00;;;;;;5062307;28;20025;-80
2021/10/13 03:38:00;;;;;;;9.93;4.30;;;18.80;83.10;;;;;;5070004;28;20516;-81
2021/10/13 03:40:39;;;;;;;;;;;;;;;;;;;;;
2021/10/13 03:43:08;;;;;;;6.55;3.03;;;18.80;82.90;;;;;;5067327;28;20029;-80
2021/10/13 03:45:35;;;;;;;6.43;3.53;;;18.80;82.20;;;;;;5069398;28;20032;-83
2021/10/13 03:48:02;;;;;;;12.70;4.75;;;18.70;82.20;;;;;;5070176;28;20027;-89
2021/10/13 03:50:28;;;;;;;7.97;4.78;;;18.70;82.30;;;;;;5065143;28;20452;-72
2021/10/13 03:52:55;;;;;;;8.00;4.80;;;18.70;82.50;;;;;;5067423;28;20371;-71
2021/10/13 03:55:22;;;;;;;13.07;6.15;;;18.70;82.40;;;;;;5066744;28;20134;-71
2021/10/13 03:57:49;;;;;;;8.07;5.05;;;18.70;82.20;;;;;;5068447;28;20024;-71
2021/10/13 04:00:18;;;;;;;7.40;5.40;;;18.70;82.00;;;;;;5070186;28;20107;-71
2021/10/13 04:02:45;;;;;;;8.82;5.82;;;18.60;81.90;;;;;;5061329;28;20024;-75
2021/10/13 04:05:13;;;;;;;41.47;31.95;;;18.60;81.90;;;;;;5069025;28;20028;-76
2021/10/13 04:07:39;;;;;;;15.07;7.80;;;18.60;82.00;;;;;;5061454;28;20023;-73
2021/10/13 04:10:09;;;;;;;10.05;5.82;;;18.60;81.80;;;;;;5064502;28;20021;-75
2021/10/13 04:12:45;;;;;;;16.40;9.45;;;18.60;81.90;;;;;;5048240;28;20072;-76
2021/10/13 04:15:18;;;;;;;12.93;8.98;;;18.50;81.90;;;;;;5067040;28;20023;-76
2021/10/13 04:17:45;;;;;;;13.90;9.57;;;18.40;81.90;;;;;;5068305;28;20028;-74
2021/10/13 04:20:12;;;;;;;18.60;8.55;;;18.40;82.20;;;;;;5064497;28;20107;-74
2021/10/13 04:22:39;;;;;;;13.50;8.40;;;18.40;82.30;;;;;;5069915;28;20078;-77
2021/10/13 04:25:06;;;;;;;13.95;9.30;;;18.30;82.70;;;;;;5063071;28;20466;-75
2021/10/13 04:27:32;;;;;;;36.22;23.63;;;18.30;82.40;;;;;;5067301;28;20028;-73
2021/10/13 04:29:59;;;;;;;23.02;12.15;;;18.30;83.20;;;;;;5066717;28;20127;-76
2021/10/13 04:32:25;;;;;;;17.33;9.27;;;18.30;82.60;;;;;;5066731;28;20506;-76
2021/10/13 04:34:52;;;;;;;12.07;7.32;;;18.30;82.50;;;;;;5068706;28;20078;-77
2021/10/13 04:37:19;;;;;;;13.23;8.20;;;18.30;83.40;;;;;;5066938;28;20016;-80
2021/10/13 04:39:46;;;;;;;17.63;9.48;;;18.30;82.80;;;;;;5066814;28;20174;-77
2021/10/13 04:42:12;;;;;;;13.70;7.97;;;18.30;83.00;;;;;;5065325;28;20025;-75
2021/10/13 04:44:39;;;;;;;18.95;10.30;;;18.30;83.20;;;;;;5067376;28;20040;-76
2021/10/13 04:47:06;;;;;;;13.48;9.57;;;18.30;83.40;;;;;;5068688;28;20059;-72
2021/10/13 04:49:33;;;;;;;17.08;9.38;;;18.20;83.20;;;;;;5067911;28;20056;-77
2021/10/13 04:52:00;;;;;;;16.15;8.93;;;18.30;83.40;;;;;;5065491;28;20032;-78
2021/10/13 04:54:30;;;;;;;19.10;10.75;;;18.30;83.50;;;;;;5060774;28;20456;-79
2021/10/13 04:56:56;;;;;;;20.55;10.68;;;18.30;83.60;;;;;;5062247;28;20025;-77
2021/10/13 04:59:23;;;;;;;21.88;9.90;;;18.30;84.40;;;;;;5062279;28;20107;-79
2021/10/13 05:02:29;;;;;;;26.55;10.80;;;18.30;83.90;;;;;;5059062;28;20040;-77
2021/10/13 05:05:35;;;;;;;16.45;9.70;;;18.30;83.90;;;;;;5064263;28;20020;-74
2021/10/13 05:08:44;;;;;;;13.85;9.23;;;18.30;84.50;;;;;;5052368;28;20032;-75
2021/10/13 05:11:50;;;;;;;12.18;8.10;;;18.30;83.90;;;;;;5055149;28;20031;-76
2021/10/13 05:14:56;;;;;;;15.00;7.95;;;18.30;83.90;;;;;;5062003;28;20028;-76
2021/10/13 05:18:02;;;;;;;13.93;8.80;;;18.30;83.90;;;;;;5064343;28;20025;-75
2021/10/13 05:21:08;;;;;;;14.43;8.88;;;18.30;83.90;;;;;;5061354;28;20062;-74
2021/10/13 05:24:14;;;;;;;12.60;8.10;;;18.40;84.10;;;;;;5066228;28;20016;-74
2021/10/13 05:27:20;;;;;;;16.08;8.48;;;18.40;84.20;;;;;;5065033;28;20017;-76
2021/10/13 05:30:27;;;;;;;10.35;6.55;;;18.40;84.40;;;;;;5061779;28;20013;-74
2021/10/13 05:33:33;;;;;;;14.82;7.05;;;18.50;84.60;;;;;;5067263;28;20076;-75
2021/10/13 05:36:39;;;;;;;10.93;6.03;;;18.50;85.30;;;;;;5066457;28;20023;-75
2021/10/13 05:39:45;;;;;;;11.90;5.88;;;18.50;84.60;;;;;;5068918;28;20467;-74
2021/10/13 05:42:51;;;;;;;13.43;7.13;;;18.60;84.70;;;;;;5062668;28;20036;-75
2021/10/13 05:45:57;;;;;;;11.95;6.80;;;18.70;84.60;;;;;;5067632;28;20498;-74
2021/10/13 05:49:03;;;;;;;19.30;7.25;;;18.80;84.60;;;;;;5065249;28;20021;-73
2021/10/13 05:52:09;;;;;;;18.80;7.88;;;18.80;84.50;;;;;;5066103;28;20029;-74
2021/10/13 05:55:15;;;;;;;15.52;7.40;;;18.90;84.30;;;;;;5100962;28;20107;-74
2021/10/13 05:58:23;;;;;;;19.55;7.63;;;18.90;84.00;;;;;;5068754;28;20025;-76
2021/10/13 06:01:29;;;;;;;18.88;7.43;;;18.90;84.00;;;;;;5059869;28;20036;-73
2021/10/13 06:04:35;;;;;;;21.42;6.57;;;19.00;83.80;;;;;;5062470;28;20102;-77
2021/10/13 06:07:41;;;;;;;11.77;6.97;;;19.00;83.80;;;;;;5068475;28;20479;-74
2021/10/13 06:10:56;;;;;;;11.75;7.18;;;19.10;84.40;;;;;;5067734;28;20025;-74
2021/10/13 06:14:03;;;;;;;10.82;6.22;;;19.10;84.20;;;;;;5060774;28;20530;-74
2021/10/13 06:17:09;;;;;;;11.75;7.40;;;19.10;83.50;;;;;;5061522;28;20074;-75
2021/10/13 06:20:15;;;;;;;12.75;6.75;;;19.20;83.40;;;;;;5068318;28;20036;-78
2021/10/13 06:23:21;;;;;;;15.18;7.10;;;19.20;83.10;;;;;;5066566;28;20433;-74
2021/10/13 06:26:27;;;;;;;9.63;6.25;;;19.30;83.00;;;;;;5066638;28;20012;-75
2021/10/13 06:29:33;;;;;;;12.60;5.93;;;19.30;83.00;;;;;;5064931;28;20040;-73
2021/10/13 06:32:39;;;;;;;14.65;6.85;;;19.40;83.00;;;;;;5062632;28;20032;-71
2021/10/13 06:35:45;;;;;;;11.88;6.07;;;19.50;83.10;;;;;;5057276;28;20016;-73
2021/10/13 06:38:51;;;;;;;12.63;5.78;;;19.60;82.90;;;;;;5063636;28;20099;-72
2021/10/13 06:41:57;;;;;;;9.73;6.93;;;19.70;82.70;;;;;;5063611;28;20128;-77
2021/10/13 06:45:03;;;;;;;11.27;6.68;;;19.80;82.60;;;;;;5065997;28;20476;-73
2021/10/13 06:48:09;;;;;;;12.25;7.22;;;20.00;82.50;;;;;;5061720;28;20062;-73
2021/10/13 06:51:15;;;;;;;13.05;6.53;;;20.00;81.60;;;;;;5068497;28;20078;-74
2021/10/13 06:54:21;;;;;;;14.25;6.88;;;20.10;81.10;;;;;;5064772;28;20571;-73
2021/10/13 06:56:48;;;;;;;15.50;6.53;;;20.20;80.80;;;;;;5064923;28;20449;-72
2021/10/13 06:59:14;;;;;;;15.02;6.13;;;20.30;80.70;;;;;;5065411;28;20017;-73
2021/10/13 07:01:41;;;;;;;15.73;5.93;;;20.30;80.40;;;;;;5062156;28;20040;-74
2021/10/13 07:04:07;;;;;;;14.43;6.40;;;20.30;80.20;;;;;;5066127;28;20035;-74
2021/10/13 07:06:34;;;;;;;18.80;7.40;;;20.40;80.20;;;;;;5063208;28;20017;-73
2021/10/13 07:09:00;;;;;;;19.38;8.23;;;20.40;80.30;;;;;;5064145;28;20048;-72
2021/10/13 07:11:27;;;;;;;16.02;7.78;;;20.50;80.40;;;;;;5066860;28;20063;-74
2021/10/13 07:13:53;;;;;;;18.85;7.07;;;20.60;80.30;;;;;;5062277;28;20027;-72
2021/10/13 07:16:20;;;;;;;13.20;5.90;;;20.60;79.90;;;;;;5065062;28;20452;-73
2021/10/13 07:18:46;;;;;;;11.18;4.68;;;20.70;79.90;;;;;;5063643;28;20459;-73
2021/10/13 07:21:13;;;;;;;11.48;4.70;;;20.70;79.80;;;;;;5069401;28;20037;-72
2021/10/13 07:23:39;;;;;;;15.02;4.82;;;20.80;79.00;;;;;;5063465;28;20016;-72
2021/10/13 07:26:06;;;;;;;21.20;4.80;;;20.80;78.50;;;;;;5065572;28;20341;-73
2021/10/13 07:28:38;;;;;;;10.27;5.07;;;20.80;78.40;;;;;;5064905;28;20025;-72
2021/10/13 07:31:05;;;;;;;19.05;7.13;;;20.90;78.40;;;;;;5068698;28;20005;-73
2021/10/13 07:33:31;;;;;;;8.43;3.88;;;21.00;78.30;;;;;;5066730;28;20044;-73
2021/10/13 07:35:58;;;;;;;8.88;4.25;;;21.00;78.10;;;;;;5068500;28;20074;-72
2021/10/13 07:38:24;;;;;;;9.85;3.80;;;21.00;77.40;;;;;;5060489;28;20070;-72
2021/10/13 07:40:52;;;;;;;8.90;3.58;;;21.10;77.00;;;;;;5065520;28;20504;-74
2021/10/13 07:43:18;;;;;;;10.45;3.55;;;21.10;76.80;;;;;;5058833;28;20392;-72
2021/10/13 07:45:45;;;;;;;13.50;3.72;;;21.20;76.50;;;;;;5068069;28;20035;-73
2021/10/13 07:48:12;;;;;;;8.93;2.90;;;21.30;76.40;;;;;;5070929;28;20019;-73
2021/10/13 07:50:38;;;;;;;9.30;3.60;;;21.30;76.60;;;;;;5071710;28;20155;-74
2021/10/13 07:53:05;;;;;;;8.43;2.97;;;21.40;76.30;;;;;;5063932;28;20355;-73
2021/10/13 07:55:35;;;;;;;7.70;2.45;;;21.50;76.10;;;;;;5067938;28;20025;-73
2021/10/13 07:58:02;;;;;;;9.48;2.47;;;21.60;75.60;;;;;;5070990;28;20020;-73
2021/10/13 08:00:28;;;;;;;5.75;2.85;;;21.60;75.20;;;;;;5065408;28;20017;-72
2021/10/13 08:02:54;;;;;;;6.45;2.40;;;21.70;74.90;;;;;;5070764;28;20055;-73
2021/10/13 08:05:21;;;;;;;9.18;3.28;;;21.80;74.80;;;;;;5068848;28;20012;-73
2021/10/13 08:07:48;;;;;;;6.20;2.30;;;21.80;74.60;;;;;;5064272;28;20475;-74
2021/10/13 08:10:14;;;;;;;4.85;2.05;;;21.90;74.90;;;;;;5062818;28;20028;-73
2021/10/13 08:12:41;;;;;;;5.50;2.03;;;22.00;75.20;;;;;;5068549;28;20427;-73
2021/10/13 08:15:08;;;;;;;10.32;2.08;;;22.10;75.20;;;;;;5065844;28;20047;-73
2021/10/13 08:17:35;;;;;;;8.30;2.75;;;22.10;75.20;;;;;;5065905;28;20020;-71
2021/10/13 08:20:03;;;;;;;5.28;2.10;;;22.20;74.80;;;;;;5063784;28;20024;-72
2021/10/13 08:22:30;;;;;;;7.13;2.47;;;22.30;74.30;;;;;;5065108;28;20048;-73
2021/10/13 08:24:57;;;;;;;6.93;2.50;;;22.30;74.00;;;;;;5068903;28;20541;-71
2021/10/13 08:27:23;;;;;;;5.60;2.00;;;22.30;74.30;;;;;;5065614;28;20039;-72
2021/10/13 08:29:50;;;;;;;4.75;2.35;;;22.30;74.60;;;;;;5062881;28;20016;-74
2021/10/13 08:32:16;;;;;;;5.70;1.92;;;22.40;74.80;;;;;;5068268;28;20049;-74
2021/10/13 08:34:43;;;;;;;6.60;1.80;;;22.40;74.80;;;;;;5070203;28;20032;-71
2021/10/13 08:37:09;;;;;;;5.35;2.10;;;22.40;73.80;;;;;;5067889;28;20060;-73
2021/10/13 08:39:36;;;;;;;9.07;1.65;;;22.40;74.10;;;;;;5060447;28;20579;-72
2021/10/13 08:42:03;;;;;;;6.35;2.30;;;22.50;73.90;;;;;;5067468;28;20029;-72
2021/10/13 08:44:30;;;;;;;7.50;2.22;;;22.50;73.60;;;;;;5066608;28;20016;-73
2021/10/13 08:46:57;;;;;;;5.90;1.45;;;22.50;73.40;;;;;;5067736;28;20025;-72
2021/10/13 08:49:23;;;;;;;4.63;2.50;;;22.50;73.10;;;;;;5067546;28;20108;-72
2021/10/13 08:51:50;;;;;;;3.10;2.20;;;22.60;73.20;;;;;;5066468;28;20529;-74
2021/10/13 08:54:18;;;;;;;16.45;3.80;;;22.60;72.80;;;;;;5064950;28;20378;-72
2021/10/13 08:56:45;;;;;;;14.10;3.95;;;22.60;72.80;;;;;;5069932;28;20055;-70
2021/10/13 08:59:40;;;;;;;22.55;5.07;;;22.70;72.90;;;;;;5065582;28;20387;-74
2021/10/13 09:02:08;;;;;;;7.40;2.95;;;22.70;72.40;;;;;;5059552;28;20101;-74
2021/10/13 09:04:35;;;;;;;7.35;2.90;;;22.70;72.60;;;;;;5068663;28;20036;-71
2021/10/13 09:07:03;;;;;;;4.93;1.88;;;22.70;73.10;;;;;;5066399;28;20017;-71
2021/10/13 09:09:30;;;;;;;5.20;1.98;;;22.80;72.90;;;;;;5062287;28;20028;-72
2021/10/13 09:11:57;;;;;;;6.07;2.38;;;22.80;72.90;;;;;;5066696;28;20532;-72
2021/10/13 09:14:33;;;;;;;2.53;1.90;;;22.80;72.30;;;;;;5064922;28;20058;-72
2021/10/13 09:17:02;;;;;;;5.32;1.70;;;22.90;72.20;;;;;;5068361;28;20048;-74
2021/10/13 09:19:45;;;;;;;3.92;1.83;;;22.90;72.00;;;;;;5058897;28;20103;-75
2021/10/13 09:22:15;;;;;;;6.60;2.35;;;23.00;71.80;;;;;;5063821;28;20683;-73
2021/10/13 09:24:47;;;;;;;7.40;1.60;;;23.10;71.60;;;;;;5061697;28;20052;-72
2021/10/13 09:27:33;;;;;;;6.05;1.85;;;23.10;71.70;;;;;;5058131;28;20665;-73
2021/10/13 09:30:05;;;;;;;9.05;2.30;;;23.30;71.80;;;;;;5062943;28;20063;-74
2021/10/13 09:32:31;;;;;;;5.97;1.90;;;23.30;70.80;;;;;;5055623;28;20044;-73
2021/10/13 09:34:58;;;;;;;10.82;2.90;;;23.30;70.90;;;;;;5067018;28;20331;-72
2021/10/13 09:37:48;;;;;;;16.10;3.90;;;23.30;70.70;;;;;;5061671;28;20020;-74
2021/10/13 09:40:29;;;;;;;7.85;2.58;;;23.40;71.00;;;;;;5063307;28;21221;-74
2021/10/13 09:42:59;;;;;;;4.43;1.95;;;23.40;70.90;;;;;;5065664;28;20032;-72
2021/10/13 09:45:28;;;;;;;6.07;1.88;;;23.40;71.30;;;;;;5067685;28;20020;-75
2021/10/13 09:48:04;;;;;;;6.50;1.35;;;23.40;71.60;;;;;;5069389;28;20070;-74
2021/10/13 09:50:39;;;;;;;4.75;1.83;;;23.50;70.80;;;;;;5066923;28;20364;-76
2021/10/13 09:53:22;;;;;;;2.67;1.20;;;23.50;70.90;;;;;;5060977;28;20020;-73
2021/10/13 09:55:49;;;;;;;5.30;1.60;;;23.50;70.70;;;;;;5068629;28;20487;-73
2021/10/13 09:58:28;;;;;;;5.65;2.17;;;23.50;70.70;;;;;;5064622;28;20020;-74
2021/10/13 10:01:14;;;;;;;8.27;2.20;;;23.50;70.20;;;;;;5063321;28;20383;-73
2021/10/13 10:03:43;;;;;;;18.55;4.22;;;23.50;70.40;;;;;;5064385;28;20115;-73
2021/10/13 12:25:30;;;;;;;3.85;2.45;;;23.20;69.00;;;;;;5098374;27;20981;-69
2021/10/13 12:28:01;;;;;;;4.13;1.40;;;23.90;67.20;;;;;;5087622;28;20032;-69
2021/10/13 12:30:36;;;;;;;3.65;1.67;;;24.10;66.60;;;;;;5085273;28;20020;-70
2021/10/13 12:33:05;;;;;;;84.50;11.15;;;24.30;65.70;;;;;;5086989;28;20118;-70
2021/10/13 12:35:33;;;;;;;19.77;4.20;;;24.50;65.00;;;;;;5087300;28;20040;-69
2021/10/13 12:38:02;;;;;;;5.57;1.60;;;24.60;64.40;;;;;;5089130;28;20020;-69
2021/10/13 12:40:28;;;;;;;6.35;1.30;;;24.70;63.90;;;;;;5088644;28;20471;-70
2021/10/13 12:42:55;;;;;;;3.13;1.58;;;24.80;63.90;;;;;;5088197;28;20576;-69
2021/10/13 12:45:26;;;;;;;3.78;1.23;;;24.80;63.40;;;;;;5088390;28;20017;-70
2021/10/13 12:48:13;;;;;;;3.90;1.65;;;24.90;63.30;;;;;;5087544;28;20447;-70
2021/10/13 12:51:00;;;;;;;1.85;1.40;;;24.80;63.80;;;;;;5086317;28;20043;-70
2021/10/13 12:53:26;;;;;;;3.95;1.85;;;24.90;64.20;;;;;;5086662;28;20043;-70
2021/10/13 12:55:53;;;;;;;1.98;1.75;;;24.90;64.10;;;;;;5087783;28;20016;-70
2021/10/13 12:58:29;;;;;;;3.50;1.83;;;24.90;64.20;;;;;;5088347;28;20101;-70
2021/10/13 13:00:57;;;;;;;2.75;1.55;;;24.90;64.30;;;;;;5087577;28;20016;-70
2021/10/13 13:03:24;;;;;;;4.13;2.28;;;24.90;64.30;;;;;;5087841;28;20467;-70
2021/10/13 13:05:52;;;;;;;8.77;2.85;;;24.90;64.40;;;;;;5086864;28;20479;-70
2021/10/13 13:08:20;;;;;;;1.88;1.55;;;24.90;64.60;;;;;;5087102;28;20024;-70
2021/10/13 13:10:47;;;;;;;2.65;1.65;;;24.90;64.70;;;;;;5087543;28;20009;-70
2021/10/13 13:13:13;;;;;;;7.50;2.13;;;24.80;64.80;;;;;;5087384;28;20028;-70
2021/10/13 13:15:40;;;;;;;4.53;1.73;;;24.80;65.10;;;;;;5086406;28;20526;-70
2021/10/13 13:18:07;;;;;;;2.05;1.45;;;24.70;65.60;;;;;;5087565;28;20471;-70
2021/10/13 13:20:33;;;;;;;19.45;3.63;;;24.70;65.90;;;;;;5086957;28;20403;-70
2021/10/13 13:23:00;;;;;;;54.40;11.27;;;24.50;66.30;;;;;;5086336;28;20044;-70
2021/10/13 13:25:27;;;;;;;23.45;4.15;;;24.40;66.80;;;;;;5076224;28;20078;-71
2021/10/13 13:27:53;;;;;;;4.05;2.53;;;24.40;66.70;;;;;;5073459;28;20015;-70
2021/10/13 13:30:20;;;;;;;4.60;1.60;;;24.30;67.00;;;;;;5073207;28;20036;-71
2021/10/13 13:32:47;;;;;;;2.38;1.20;;;24.30;67.20;;;;;;5072542;28;20110;-71
2021/10/13 13:35:13;;;;;;;5.55;2.17;;;24.30;67.20;;;;;;5074185;28;20028;-71
2021/10/13 13:37:40;;;;;;;4.35;1.23;;;24.30;67.10;;;;;;5073763;28;20422;-71
2021/10/13 13:40:10;;;;;;;3.55;1.70;;;24.30;67.00;;;;;;5072503;28;20070;-71
2021/10/13 13:42:37;;;;;;;6.93;1.55;;;24.30;66.70;;;;;;5073989;28;20174;-71
2021/10/13 13:45:05;;;;;;;3.30;1.67;;;24.40;67.00;;;;;;5073555;28;20044;-71
2021/10/13 13:47:35;;;;;;;4.97;3.10;;;24.40;67.10;;;;;;5073411;28;20031;-70
2021/10/13 13:50:04;;;;;;;4.60;1.33;;;24.40;66.80;;;;;;5073922;28;20058;-70
2021/10/13 13:52:31;;;;;;;3.20;1.25;;;24.40;66.90;;;;;;5072685;28;20081;-70
2021/10/13 13:54:57;;;;;;;3.00;1.40;;;24.30;67.20;;;;;;5073868;28;20020;-70
2021/10/13 13:57:24;;;;;;;6.85;2.83;;;24.40;67.50;;;;;;5071800;28;20530;-70
2021/10/13 13:59:51;;;;;;;4.32;1.33;;;24.40;66.90;;;;;;5073211;28;20021;-71
2021/10/13 14:02:17;;;;;;;4.05;1.83;;;24.40;66.40;;;;;;5073494;28;20024;-71
2021/10/13 14:04:45;;;;;;;4.38;1.20;;;24.40;66.60;;;;;;5072371;28;20473;-70
2021/10/13 14:07:12;;;;;;;61.67;9.38;;;24.40;66.60;;;;;;5073709;28;20466;-72
2021/10/13 14:10:18;;;;;;;15.23;2.88;;;24.30;66.10;;;;;;5071120;28;20363;-71
2021/10/13 14:12:44;;;;;;;;;;;24.10;66.40;;;;;;5073116;28;20163;-67
2021/10/13 14:15:11;;;;;;;3.85;1.30;;;24.00;67.10;;;;;;5071214;28;20354;-71
2021/10/13 14:17:37;;;;;;;2.22;1.60;;;23.90;67.70;;;;;;5072215;28;20051;-72
2021/10/13 14:20:05;;;;;;;4.38;1.10;;;23.80;68.10;;;;;;5073706;28;20085;-73
2021/10/13 14:22:31;;;;;;;9.25;1.55;;;23.70;68.30;;;;;;5072824;28;20020;-70
2021/10/13 14:24:58;;;;;;;19.58;2.45;;;23.60;68.40;;;;;;5073516;28;20399;-67
2021/10/13 14:27:25;;;;;;;53.22;47.50;;;23.60;68.10;;;;;;5071180;28;20032;-75
2021/10/13 14:29:51;;;;;;;7.60;6.05;;;23.60;68.30;;;;;;5070940;28;20044;-71
2021/10/13 14:32:57;;;;;;;3.58;2.00;;;23.50;68.60;;;;;;5062598;28;20029;-73
2021/10/13 14:36:04;;;;;;;5.00;1.33;;;23.40;68.70;;;;;;5069160;28;20024;-71
2021/10/13 14:39:10;;;;;;;5.60;1.70;;;23.30;68.80;;;;;;5048418;28;20369;-70
2021/10/13 14:41:56;;;;;;;;;;;23.20;69.10;;;;;;5066987;28;20017;-70
2021/10/13 14:45:06;;;;;;;2.83;1.35;;;23.20;69.20;;;;;;5067442;28;20297;-71
2021/10/13 14:48:13;;;;;;;4.20;1.42;;;23.10;69.40;;;;;;5072642;28;20016;-71
2021/10/13 14:50:58;;;;;;;;;;;23.10;69.80;;;;;;5072454;28;20090;-70
2021/10/13 14:54:05;;;;;;;26.58;2.85;;;23.00;69.50;;;;;;5071557;28;19912;-72
2021/10/13 14:56:51;;;;;;;;;;;23.00;69.50;;;;;;5081296;28;20062;-70
2021/10/13 14:59:57;;;;;;;1.98;1.77;;;23.00;69.40;;;;;;5071072;28;19908;-73
2021/10/13 15:03:03;;;;;;;4.70;2.35;;;22.90;69.50;;;;;;5067681;28;20028;-73
2021/10/13 15:05:49;;;;;;;;;;;22.90;69.80;;;;;;5057898;28;20040;-72
2021/10/13 15:08:16;;;;;;;2.15;1.20;;;22.80;69.70;;;;;;5050761;28;19915;-71
2021/10/13 15:10:43;;;;;;;19.90;3.10;;;22.80;69.90;;;;;;5055607;28;20040;-71
2021/10/13 15:13:09;;;;;;;2.33;1.98;;;22.70;70.20;;;;;;5070780;28;20086;-71
2021/10/13 15:15:36;;;;;;;2.80;1.40;;;22.70;70.30;;;;;;5069948;28;20471;-74
2021/10/13 15:18:03;;;;;;;3.25;1.73;;;22.60;70.70;;;;;;5072244;28;20028;-75
2021/10/13 15:20:29;;;;;;;5.63;1.60;;;22.60;71.10;;;;;;5069928;28;20036;-71
2021/10/13 15:22:58;;;;;;;1.60;1.50;;;22.50;71.50;;;;;;5076335;28;20016;-72
2021/10/13 15:25:26;;;;;;;3.75;2.47;;;22.50;71.40;;;;;;5052841;28;20028;-69
2021/10/13 15:28:32;;;;;;;4.03;2.08;;;22.40;71.30;;;;;;5055645;28;20371;-76
2021/10/13 15:31:38;;;;;;;3.47;1.70;;;22.30;71.40;;;;;;5071364;28;20111;-71
2021/10/13 15:34:44;;;;;;;6.03;1.70;;;22.20;71.90;;;;;;5071263;28;20111;-71
2021/10/13 15:37:12;;;;;;;3.80;1.88;;;22.10;72.10;;;;;;5070696;28;20463;-70
2021/10/13 15:39:39;;;;;;;3.63;1.65;;;22.00;72.50;;;;;;5071934;28;20089;-69
2021/10/13 15:42:05;;;;;;;11.52;4.78;;;22.00;72.80;;;;;;5070054;28;20063;-68
2021/10/13 15:45:12;;;;;;;9.65;6.60;;;22.00;72.60;;;;;;5066361;28;20154;-72
2021/10/13 15:47:38;;;;;;;9.75;3.28;;;21.90;72.70;;;;;;5071629;28;20024;-74
2021/10/13 15:50:06;;;;;;;4.28;1.95;;;21.90;73.20;;;;;;5071611;28;20024;-72